createdAt,value
2022-07-29T00:00:01.377Z,22.76
2022-07-29T00:02:29.140Z,22.53
2022-07-29T00:04:56.293Z,22.37
2022-07-29T00:07:23.373Z,22.30
2022-07-29T00:09:51.556Z,22.21
2022-07-29T00:12:26.298Z,22.12
2022-07-29T00:14:57.879Z,22.10
2022-07-29T00:17:25.831Z,22.08
2022-07-29T00:19:52.993Z,22.05
2022-07-29T00:22:21.432Z,22.00
2022-07-29T00:24:50.256Z,22.01
2022-07-29T00:27:18.496Z,21.97
2022-07-29T00:29:45.788Z,21.93
2022-07-29T00:32:13.162Z,21.86
2022-07-29T00:34:59.225Z,21.82
2022-07-29T00:37:26.327Z,21.79
2022-07-29T00:39:53.312Z,21.73
2022-07-29T00:42:20.348Z,21.72
2022-07-29T00:44:47.336Z,21.65
2022-07-29T00:47:14.358Z,21.58
2022-07-29T00:49:42.833Z,21.58
2022-07-29T00:52:11.153Z,21.53
2022-07-29T00:54:44.830Z,21.49
2022-07-29T00:57:13.237Z,21.46
2022-07-29T00:59:40.671Z,21.42
2022-07-29T01:02:07.820Z,21.37
2022-07-29T01:04:35.084Z,21.35
2022-07-29T01:07:03.716Z,21.29
2022-07-29T01:09:42.992Z,21.25
2022-07-29T01:12:20.220Z,21.22
2022-07-29T01:14:49.795Z,21.17
2022-07-29T01:17:28.236Z,21.12
2022-07-29T01:20:01.316Z,21.07
2022-07-29T01:23:09.614Z,21.03
2022-07-29T01:25:56.024Z,20.94
2022-07-29T01:28:41.023Z,20.85
2022-07-29T01:31:13.428Z,20.87
2022-07-29T01:33:58.929Z,20.91
2022-07-29T01:36:33.495Z,20.90
2022-07-29T01:39:24.643Z,20.88
2022-07-29T01:42:11.068Z,20.86
2022-07-29T01:44:55.462Z,21.04
2022-07-29T01:47:27.848Z,21.04
2022-07-29T01:49:57.887Z,20.96
2022-07-29T01:52:35.014Z,20.88
2022-07-29T01:55:08.894Z,20.85
2022-07-29T01:57:37.178Z,20.84
2022-07-29T02:00:06.312Z,20.87
2022-07-29T02:02:42.309Z,20.93
2022-07-29T02:05:12.087Z,21.05
2022-07-29T02:07:42.116Z,20.96
2022-07-29T02:10:11.117Z,20.88
2022-07-29T02:12:40.159Z,20.69
2022-07-29T02:15:08.801Z,20.56
2022-07-29T02:17:52.853Z,20.45
2022-07-29T02:20:20.478Z,20.45
2022-07-29T02:22:49.502Z,20.43
2022-07-29T02:25:17.737Z,20.39
2022-07-29T02:27:46.799Z,20.23
2022-07-29T02:30:14.323Z,20.15
2022-07-29T02:32:44.638Z,20.10
2022-07-29T02:35:16.153Z,20.06
2022-07-29T02:37:45.743Z,20.07
2022-07-29T02:40:13.981Z,20.07
2022-07-29T02:42:43.556Z,20.04
2022-07-29T02:45:11.097Z,20.02
2022-07-29T02:47:42.875Z,19.97
2022-07-29T02:50:10.407Z,19.94
2022-07-29T02:52:53.595Z,19.90
2022-07-29T02:55:35.923Z,19.88
2022-07-29T02:58:35.374Z,19.84
2022-07-29T03:01:04.436Z,19.82
2022-07-29T03:03:39.472Z,19.80
2022-07-29T03:06:09.002Z,19.75
2022-07-29T03:08:56.499Z,19.71
2022-07-29T03:11:40.078Z,19.67
2022-07-29T03:14:12.405Z,19.62
2022-07-29T03:16:41.381Z,19.57
2022-07-29T03:19:08.991Z,19.72
2022-07-29T03:21:35.972Z,19.68
2022-07-29T03:24:08.188Z,19.66
2022-07-29T03:26:37.272Z,19.57
2022-07-29T03:29:04.315Z,19.58
2022-07-29T03:31:31.403Z,19.57
2022-07-29T03:33:58.709Z,19.55
2022-07-29T03:36:25.978Z,19.54
2022-07-29T03:38:53.467Z,19.53
2022-07-29T03:41:23.872Z,19.52
2022-07-29T03:43:52.833Z,19.50
2022-07-29T03:46:24.299Z,19.54
2022-07-29T03:48:57.618Z,19.59
2022-07-29T03:51:34.066Z,19.68
2022-07-29T03:54:09.951Z,19.74
2022-07-29T03:56:41.327Z,19.76
2022-07-29T03:59:09.525Z,19.81
2022-07-29T04:01:38.241Z,20.06
2022-07-29T04:04:06.242Z,20.19
2022-07-29T04:06:44.172Z,20.29
2022-07-29T04:09:12.477Z,20.58
2022-07-29T04:11:57.061Z,20.85
2022-07-29T04:14:27.935Z,20.93
2022-07-29T04:16:54.972Z,21.05
2022-07-29T04:19:22.020Z,21.59
2022-07-29T04:21:49.091Z,22.15
2022-07-29T04:24:16.454Z,22.63
2022-07-29T04:26:43.837Z,23.24
2022-07-29T04:29:10.903Z,23.77
2022-07-29T04:31:38.079Z,24.07
2022-07-29T04:34:05.114Z,24.36
2022-07-29T04:36:32.084Z,24.55
2022-07-29T04:38:59.587Z,25.53
2022-07-29T04:41:32.987Z,25.72
2022-07-29T04:44:06.792Z,25.95
2022-07-29T04:46:40.071Z,26.62
2022-07-29T04:49:07.288Z,26.87
2022-07-29T04:51:34.491Z,27.01
2022-07-29T04:54:02.088Z,26.55
2022-07-29T04:56:29.136Z,26.62
2022-07-29T04:58:56.186Z,26.93
2022-07-29T05:01:23.234Z,27.31
2022-07-29T05:03:50.207Z,27.30
2022-07-29T05:06:17.216Z,27.20
2022-07-29T05:08:44.205Z,27.58
2022-07-29T05:11:13.520Z,27.66
2022-07-29T05:13:45.348Z,27.50
2022-07-29T05:16:14.344Z,28.22
2022-07-29T05:18:41.808Z,28.57
2022-07-29T05:21:09.142Z,28.68
2022-07-29T05:23:36.245Z,27.68
2022-07-29T05:26:03.353Z,27.68
2022-07-29T05:28:30.432Z,27.77
2022-07-29T05:30:57.518Z,28.58
2022-07-29T05:33:36.228Z,27.94
2022-07-29T05:36:08.351Z,28.02
2022-07-29T05:38:37.271Z,27.80
2022-07-29T05:41:05.612Z,26.57
2022-07-29T05:43:32.958Z,26.01
2022-07-29T05:46:00.276Z,26.43
2022-07-29T05:48:27.859Z,25.89
2022-07-29T05:50:55.791Z,26.72
2022-07-29T05:53:23.452Z,27.48
2022-07-29T05:55:51.581Z,27.61
2022-07-29T05:58:18.771Z,28.55
2022-07-29T06:00:46.281Z,27.96
2022-07-29T06:03:13.645Z,26.66
2022-07-29T06:05:41.085Z,27.17
2022-07-29T06:08:08.491Z,27.55
2022-07-29T06:10:36.414Z,27.81
2022-07-29T06:13:03.713Z,27.01
2022-07-29T06:15:30.762Z,27.78
2022-07-29T06:17:59.099Z,28.06
2022-07-29T06:20:30.925Z,27.23
2022-07-29T06:22:58.430Z,26.74
2022-07-29T06:25:25.460Z,26.04
2022-07-29T06:27:53.344Z,25.50
2022-07-29T06:30:20.425Z,25.41
2022-07-29T06:32:48.342Z,25.52
2022-07-29T06:35:40.989Z,25.24
2022-07-29T06:38:03.843Z,25.42
2022-07-29T06:41:03.962Z,25.64
2022-07-29T06:43:52.125Z,25.82
2022-07-29T06:46:23.302Z,25.84
2022-07-29T06:48:51.916Z,25.95
2022-07-29T06:51:22.867Z,26.09
2022-07-29T06:53:58.159Z,26.13
2022-07-29T06:56:28.924Z,26.03
2022-07-29T06:58:56.178Z,25.98
2022-07-29T07:01:23.278Z,26.01
2022-07-29T07:03:50.283Z,26.22
2022-07-29T07:06:17.794Z,26.46
2022-07-29T07:08:44.836Z,26.47
2022-07-29T07:11:12.441Z,26.55
2022-07-29T07:13:39.569Z,26.59
2022-07-29T07:16:07.017Z,26.40
2022-07-29T07:18:34.249Z,26.56
2022-07-29T07:21:01.442Z,26.50
2022-07-29T07:23:28.497Z,26.51
2022-07-29T07:25:55.508Z,26.36
2022-07-29T07:28:24.935Z,26.48
2022-07-29T07:30:53.005Z,26.70
2022-07-29T07:33:20.314Z,26.50
2022-07-29T07:35:47.818Z,26.55
2022-07-29T07:38:14.987Z,26.70
2022-07-29T07:40:42.678Z,26.55
2022-07-29T07:43:09.711Z,26.68
2022-07-29T07:45:38.572Z,26.87
2022-07-29T07:48:06.484Z,27.06
2022-07-29T07:50:33.628Z,27.17
2022-07-29T07:53:03.146Z,27.06
2022-07-29T07:55:53.447Z,27.21
2022-07-29T07:58:17.270Z,27.37
2022-07-29T08:00:44.527Z,27.66
2022-07-29T08:03:16.762Z,27.96
2022-07-29T08:05:44.745Z,28.03
2022-07-29T08:08:11.759Z,28.30
2022-07-29T08:10:53.816Z,28.46
2022-07-29T08:13:22.410Z,28.12
2022-07-29T08:15:58.724Z,27.83
2022-07-29T08:18:27.527Z,27.96
2022-07-29T08:20:55.081Z,28.29
2022-07-29T08:23:23.884Z,28.41
2022-07-29T08:25:52.439Z,28.38
2022-07-29T08:28:22.168Z,28.41
2022-07-29T08:30:53.617Z,28.27
2022-07-29T08:33:20.552Z,28.03
2022-07-29T08:35:47.657Z,28.07
2022-07-29T08:38:14.936Z,28.17
2022-07-29T08:40:42.022Z,28.01
2022-07-29T08:43:10.013Z,28.28
2022-07-29T08:45:48.962Z,28.42
2022-07-29T08:48:21.342Z,28.54
2022-07-29T08:50:51.211Z,28.28
2022-07-29T08:53:19.118Z,27.99
2022-07-29T08:55:51.013Z,28.31
2022-07-29T08:58:18.297Z,28.57
2022-07-29T09:00:56.023Z,28.60
2022-07-29T09:03:30.810Z,28.69
2022-07-29T09:05:59.226Z,28.79
2022-07-29T09:08:26.335Z,28.72
2022-07-29T09:10:54.538Z,28.79
2022-07-29T09:13:21.596Z,28.67
2022-07-29T09:15:48.584Z,28.81
2022-07-29T09:18:35.134Z,28.99
2022-07-29T09:21:21.586Z,29.04
2022-07-29T09:24:08.946Z,29.32
2022-07-29T09:26:39.826Z,29.33
2022-07-29T09:29:36.087Z,29.26
2022-07-29T09:32:07.782Z,29.26
2022-07-29T09:34:34.991Z,29.35
2022-07-29T09:37:02.134Z,29.49
2022-07-29T09:39:46.821Z,29.70
2022-07-29T09:42:16.733Z,29.92
2022-07-29T09:44:49.361Z,29.82
2022-07-29T09:47:18.075Z,29.75
2022-07-29T09:49:59.026Z,29.89
2022-07-29T09:52:27.876Z,30.03
2022-07-29T09:55:05.119Z,30.01
2022-07-29T09:57:32.125Z,29.97
2022-07-29T10:00:09.230Z,29.95
2022-07-29T10:02:41.714Z,29.87
2022-07-29T10:05:36.051Z,29.61
2022-07-29T10:08:04.429Z,29.94
2022-07-29T10:10:36.794Z,30.17
2022-07-29T10:13:08.885Z,29.60
2022-07-29T10:15:42.092Z,29.68
2022-07-29T10:18:10.445Z,29.43
2022-07-29T10:20:39.026Z,29.59
2022-07-29T10:23:06.567Z,29.81
2022-07-29T10:25:33.543Z,30.14
2022-07-29T10:28:00.667Z,30.21
2022-07-29T10:30:28.591Z,29.87
2022-07-29T10:33:31.149Z,29.88
2022-07-29T10:36:19.651Z,29.68
2022-07-29T10:39:16.441Z,29.92
2022-07-29T10:41:55.289Z,30.12
2022-07-29T10:44:24.773Z,30.12
2022-07-29T10:46:53.556Z,30.17
2022-07-29T10:49:25.689Z,29.85
2022-07-29T10:51:54.481Z,29.79
2022-07-29T10:54:36.659Z,30.12
2022-07-29T11:00:16.949Z,29.80
2022-07-29T11:02:47.051Z,29.95
2022-07-29T11:05:22.300Z,29.93
2022-07-29T11:08:20.157Z,30.46
2022-07-29T11:11:15.886Z,30.26
2022-07-29T11:13:44.433Z,30.12
2022-07-29T11:16:11.481Z,30.32
2022-07-29T11:19:14.317Z,30.56
2022-07-29T11:21:53.931Z,30.15
2022-07-29T11:24:35.956Z,30.58
2022-07-29T11:27:10.397Z,30.35
2022-07-29T11:29:43.085Z,30.54
2022-07-29T11:32:15.869Z,30.50
2022-07-29T11:34:45.729Z,30.02
2022-07-29T11:37:15.458Z,30.05
2022-07-29T11:39:47.611Z,30.19
2022-07-29T11:42:17.601Z,30.32
2022-07-29T11:44:59.712Z,30.81
2022-07-29T11:47:41.488Z,31.19
2022-07-29T11:50:15.981Z,31.43
2022-07-29T11:52:49.502Z,31.07
2022-07-29T11:55:32.581Z,31.49
2022-07-29T11:58:04.138Z,31.08
2022-07-29T12:00:36.149Z,31.33
2022-07-29T12:03:05.895Z,31.29
2022-07-29T12:08:42.022Z,31.00
2022-07-29T12:11:17.813Z,31.06
2022-07-29T12:13:49.371Z,31.43
2022-07-29T12:16:25.403Z,31.83
2022-07-29T12:19:02.221Z,31.81
2022-07-29T12:21:31.081Z,31.90
2022-07-29T12:24:03.391Z,31.76
2022-07-29T12:26:34.248Z,31.78
2022-07-29T12:29:03.855Z,31.62
2022-07-29T12:31:43.406Z,31.35
2022-07-29T12:34:14.346Z,31.26
2022-07-29T12:36:42.110Z,31.72
2022-07-29T12:39:10.388Z,31.72
2022-07-29T12:41:37.554Z,31.69
2022-07-29T12:44:05.113Z,31.30
2022-07-29T12:46:32.597Z,31.26
2022-07-29T12:48:59.859Z,31.14
2022-07-29T12:51:38.712Z,31.56
2022-07-29T12:54:08.828Z,31.64
2022-07-29T12:56:44.457Z,32.07
2022-07-29T12:59:18.793Z,31.43
2022-07-29T13:01:49.034Z,31.00
2022-07-29T13:04:28.141Z,30.76
2022-07-29T13:07:09.132Z,30.89
2022-07-29T13:09:49.664Z,31.19
2022-07-29T13:12:16.912Z,31.31
2022-07-29T13:14:47.048Z,31.24
2022-07-29T13:17:24.013Z,31.69
2022-07-29T13:19:52.330Z,32.07
2022-07-29T13:22:24.128Z,32.22
2022-07-29T13:25:04.770Z,31.41
2022-07-29T13:27:33.878Z,31.05
2022-07-29T13:30:03.282Z,31.84
2022-07-29T13:32:31.977Z,31.43
2022-07-29T13:35:01.740Z,31.74
2022-07-29T13:37:35.968Z,32.22
2022-07-29T13:40:04.575Z,32.67
2022-07-29T13:42:33.298Z,32.43
2022-07-29T13:45:01.384Z,32.46
2022-07-29T13:47:32.284Z,32.35
2022-07-29T13:50:06.441Z,32.21
2022-07-29T13:52:34.605Z,32.70
2022-07-29T13:55:01.855Z,32.90
2022-07-29T13:57:29.996Z,33.18
2022-07-29T13:59:57.778Z,33.74
2022-07-29T14:02:25.908Z,33.93
2022-07-29T14:04:54.748Z,33.51
2022-07-29T14:07:22.291Z,33.60
2022-07-29T14:09:49.378Z,33.74
2022-07-29T14:12:16.785Z,33.73
2022-07-29T14:14:43.892Z,33.78
2022-07-29T14:17:10.967Z,34.09
2022-07-29T14:19:39.305Z,33.63
2022-07-29T14:22:08.573Z,33.57
2022-07-29T14:24:37.707Z,33.33
2022-07-29T14:27:06.295Z,33.32
2022-07-29T14:29:38.284Z,33.55
2022-07-29T14:32:08.400Z,33.26
2022-07-29T14:34:36.776Z,32.64
2022-07-29T14:37:06.925Z,32.62
2022-07-29T14:39:38.161Z,32.48
2022-07-29T14:42:10.193Z,32.85
2022-07-29T14:44:42.497Z,33.13
2022-07-29T14:47:09.948Z,33.32
2022-07-29T14:49:37.028Z,33.60
2022-07-29T14:52:04.573Z,33.42
2022-07-29T14:54:31.651Z,33.33
2022-07-29T14:56:58.943Z,33.35
2022-07-29T14:59:27.404Z,33.46
2022-07-29T15:01:54.891Z,33.07
2022-07-29T15:04:21.988Z,33.22
2022-07-29T15:06:49.182Z,33.22
2022-07-29T15:09:16.189Z,33.09
2022-07-29T15:11:43.220Z,33.19
2022-07-29T15:14:10.577Z,33.11
2022-07-29T15:16:39.081Z,33.42
2022-07-29T15:19:12.140Z,33.68
2022-07-29T15:21:41.624Z,33.63
2022-07-29T15:24:20.052Z,33.49
2022-07-29T15:26:48.215Z,33.22
2022-07-29T15:29:15.437Z,32.92
2022-07-29T15:31:42.693Z,32.76
2022-07-29T15:34:10.140Z,33.54
2022-07-29T15:36:53.638Z,34.25
2022-07-29T15:39:22.029Z,36.48
2022-07-29T15:41:49.304Z,38.32
2022-07-29T15:44:16.355Z,36.43
2022-07-29T15:47:02.523Z,34.59
2022-07-29T15:49:48.148Z,33.53
2022-07-29T15:52:24.805Z,33.11
2022-07-29T15:54:52.727Z,33.04
2022-07-29T15:57:19.834Z,33.10
2022-07-29T15:59:46.922Z,33.29
2022-07-29T16:02:13.911Z,33.26
2022-07-29T16:04:41.296Z,33.17
2022-07-29T16:07:08.370Z,32.90
2022-07-29T16:09:35.404Z,32.55
2022-07-29T16:12:02.500Z,32.29
2022-07-29T16:14:42.748Z,33.11
2022-07-29T16:17:14.218Z,33.66
2022-07-29T16:19:43.561Z,33.17
2022-07-29T16:22:11.619Z,33.23
2022-07-29T16:24:39.160Z,33.28
2022-07-29T16:27:06.525Z,33.09
2022-07-29T16:29:33.673Z,32.91
2022-07-29T16:32:01.473Z,32.84
2022-07-29T16:34:28.820Z,32.88
2022-07-29T16:36:56.240Z,32.68
2022-07-29T16:39:23.293Z,32.63
2022-07-29T16:41:50.312Z,32.69
2022-07-29T16:44:17.340Z,32.75
2022-07-29T16:46:45.687Z,33.25
2022-07-29T16:49:15.050Z,33.62
2022-07-29T16:51:48.057Z,35.72
2022-07-29T16:54:15.262Z,37.32
2022-07-29T16:56:42.286Z,36.66
2022-07-29T16:59:09.392Z,37.21
2022-07-29T17:01:36.608Z,38.72
2022-07-29T17:04:06.581Z,38.99
2022-07-29T17:06:35.301Z,37.75
2022-07-29T17:09:06.379Z,37.38
2022-07-29T17:11:53.898Z,37.42
2022-07-29T17:14:29.513Z,37.11
2022-07-29T17:17:00.877Z,35.87
2022-07-29T17:19:35.323Z,35.44
2022-07-29T17:22:11.610Z,35.22
2022-07-29T17:24:43.358Z,35.35
2022-07-29T17:27:10.520Z,35.74
2022-07-29T17:29:39.249Z,35.79
2022-07-29T17:32:07.683Z,35.74
2022-07-29T17:34:39.993Z,35.88
2022-07-29T17:37:09.475Z,34.93
2022-07-29T17:39:40.769Z,33.88
2022-07-29T17:42:13.575Z,32.92
2022-07-29T17:44:41.215Z,32.28
2022-07-29T17:47:16.040Z,31.91
2022-07-29T17:49:44.645Z,31.62
2022-07-29T17:52:11.850Z,31.47
2022-07-29T17:54:38.927Z,31.33
2022-07-29T17:57:05.947Z,31.26
2022-07-29T17:59:32.989Z,31.12
2022-07-29T18:02:00.132Z,30.87
2022-07-29T18:04:28.767Z,30.62
2022-07-29T18:06:56.151Z,30.34
2022-07-29T18:09:23.395Z,30.14
2022-07-29T18:11:51.869Z,30.01
2022-07-29T18:14:19.342Z,29.91
2022-07-29T18:16:46.375Z,29.98
2022-07-29T18:19:13.550Z,29.85
2022-07-29T18:21:50.972Z,29.77
2022-07-29T18:24:19.125Z,29.59
2022-07-29T18:26:46.088Z,29.44
2022-07-29T18:29:13.185Z,29.22
2022-07-29T18:31:41.401Z,29.04
2022-07-29T18:34:08.544Z,28.92
2022-07-29T18:36:35.520Z,28.83
2022-07-29T18:39:02.573Z,28.72
2022-07-29T18:41:29.533Z,28.59
2022-07-29T18:43:56.564Z,28.46
2022-07-29T18:46:23.609Z,28.45
2022-07-29T18:48:52.640Z,28.53
2022-07-29T18:51:19.733Z,28.52
2022-07-29T18:53:46.983Z,28.49
2022-07-29T18:56:14.134Z,28.48
2022-07-29T18:58:41.241Z,28.59
2022-07-29T19:01:08.313Z,28.57
2022-07-29T19:03:35.329Z,28.37
2022-07-29T19:06:02.337Z,28.23
2022-07-29T19:08:29.380Z,28.11
2022-07-29T19:10:56.527Z,28.17
2022-07-29T19:13:23.648Z,28.16
2022-07-29T19:15:50.696Z,28.16
2022-07-29T19:18:17.797Z,28.15
2022-07-29T19:20:44.918Z,28.05
2022-07-29T19:23:11.980Z,27.91
2022-07-29T19:25:53.833Z,27.85
2022-07-29T19:28:22.123Z,27.75
2022-07-29T19:30:49.547Z,27.70
2022-07-29T19:33:19.001Z,27.54
2022-07-29T19:35:49.300Z,27.50
2022-07-29T19:38:18.648Z,27.40
2022-07-29T19:40:45.627Z,27.34
2022-07-29T19:43:49.679Z,27.24
2022-07-29T19:46:00.304Z,27.12
2022-07-29T19:48:27.379Z,27.09
2022-07-29T19:50:54.433Z,27.09
2022-07-29T19:53:21.587Z,27.04
2022-07-29T19:55:48.806Z,27.02
2022-07-29T19:58:15.807Z,26.87
2022-07-29T20:00:42.873Z,26.78
2022-07-29T20:03:10.940Z,26.73
2022-07-29T20:05:38.177Z,26.76
2022-07-29T20:08:06.346Z,26.75
2022-07-29T20:10:34.231Z,26.75
2022-07-29T20:13:01.195Z,26.74
2022-07-29T20:15:28.464Z,26.70
2022-07-29T20:17:57.471Z,26.67
2022-07-29T20:20:25.053Z,26.65
2022-07-29T20:22:52.615Z,26.56
2022-07-29T20:25:19.887Z,26.47
2022-07-29T20:27:46.832Z,26.39
2022-07-29T20:30:14.496Z,26.31
2022-07-29T20:32:41.778Z,26.20
2022-07-29T20:35:10.130Z,26.10
2022-07-29T20:37:52.319Z,25.97
2022-07-29T20:40:24.949Z,25.87
2022-07-29T20:42:52.260Z,25.84
2022-07-29T20:45:20.245Z,25.80
2022-07-29T20:47:47.316Z,25.79
2022-07-29T20:50:14.471Z,25.76
2022-07-29T20:52:43.447Z,25.74
2022-07-29T20:55:11.006Z,25.75
2022-07-29T20:57:39.332Z,25.73
2022-07-29T21:00:08.815Z,25.68
2022-07-29T21:02:36.912Z,25.58
2022-07-29T21:05:04.621Z,25.61
2022-07-29T21:07:31.686Z,25.81
2022-07-29T21:09:58.718Z,25.91
2022-07-29T21:12:25.867Z,25.96
2022-07-29T21:14:53.011Z,25.86
2022-07-29T21:17:22.647Z,25.94
2022-07-29T21:19:55.444Z,25.97
2022-07-29T21:22:22.620Z,26.00
2022-07-29T21:24:50.120Z,26.02
2022-07-29T21:27:53.216Z,25.97
2022-07-29T21:30:20.292Z,25.94
2022-07-29T21:32:47.748Z,25.87
2022-07-29T21:35:30.269Z,25.91
2022-07-29T21:38:02.051Z,25.93
2022-07-29T21:40:30.161Z,25.85
2022-07-29T21:42:57.192Z,25.72
2022-07-29T21:45:24.179Z,25.69
2022-07-29T21:47:51.267Z,25.71
2022-07-29T21:50:18.462Z,25.69
2022-07-29T21:52:53.110Z,25.78
2022-07-29T21:55:32.521Z,25.71
2022-07-29T21:57:59.636Z,25.64
2022-07-29T22:00:28.089Z,25.61
2022-07-29T22:02:55.348Z,25.52
2022-07-29T22:05:22.354Z,25.50
2022-07-29T22:07:56.746Z,25.49
2022-07-29T22:10:28.138Z,25.52
2022-07-29T22:12:57.231Z,25.54
2022-07-29T22:15:25.712Z,25.50
2022-07-29T22:17:53.498Z,25.54
2022-07-29T22:20:20.623Z,25.67
2022-07-29T22:22:48.298Z,25.66
2022-07-29T22:25:15.788Z,25.60
2022-07-29T22:27:42.902Z,25.58
2022-07-29T22:30:10.442Z,25.43
2022-07-29T22:32:37.545Z,25.44
2022-07-29T22:35:05.127Z,25.49
2022-07-29T22:37:32.196Z,25.46
2022-07-29T22:39:59.402Z,25.52
2022-07-29T22:42:26.575Z,25.38
2022-07-29T22:44:53.542Z,25.30
2022-07-29T22:47:46.382Z,25.39
2022-07-29T22:50:08.191Z,25.44
2022-07-29T22:52:35.172Z,25.39
2022-07-29T22:55:02.771Z,25.28
2022-07-29T22:57:29.711Z,25.19
2022-07-29T22:59:56.737Z,25.14
2022-07-29T23:02:23.712Z,25.09
2022-07-29T23:04:50.736Z,24.99
2022-07-29T23:07:17.879Z,24.89
2022-07-29T23:09:44.952Z,24.84
2022-07-29T23:12:11.981Z,25.04
2022-07-29T23:14:39.073Z,25.14
2022-07-29T23:17:06.156Z,25.03
2022-07-29T23:19:33.306Z,24.85
2022-07-29T23:22:00.377Z,24.78
2022-07-29T23:24:27.348Z,24.68
2022-07-29T23:26:54.345Z,24.55
2022-07-29T23:29:21.494Z,24.76
2022-07-29T23:31:48.545Z,24.87
2022-07-29T23:34:15.664Z,24.65
2022-07-29T23:36:42.714Z,24.49
2022-07-29T23:39:11.458Z,24.45
2022-07-29T23:41:38.674Z,24.37
2022-07-29T23:44:05.784Z,24.41
2022-07-29T23:46:32.792Z,24.60
2022-07-29T23:48:59.958Z,24.63
2022-07-29T23:51:29.340Z,24.81
2022-07-29T23:53:56.605Z,24.84
2022-07-29T23:56:24.016Z,24.77
2022-07-29T23:58:51.000Z,24.66
